createdAt,value
2017-03-28T00:02:14.736Z,0
2017-03-28T00:07:11.350Z,0
2017-03-28T00:12:08.298Z,0
2017-03-28T00:17:04.837Z,0
2017-03-28T00:22:01.338Z,0
2017-03-28T00:26:58.102Z,0
2017-03-28T00:31:54.361Z,0
2017-03-28T00:36:50.963Z,0
2017-03-28T00:41:47.401Z,0
2017-03-28T00:46:44.043Z,0
2017-03-28T00:51:40.732Z,0
2017-03-28T00:56:36.865Z,0
2017-03-28T01:01:34.044Z,0
2017-03-28T01:11:36.583Z,0
2017-03-28T01:16:34.503Z,0
2017-03-28T01:21:30.788Z,0
2017-03-28T01:26:27.303Z,0
2017-03-28T01:31:23.726Z,0
2017-03-28T01:36:20.144Z,0
2017-03-28T01:41:17.209Z,0
2017-03-28T01:46:13.426Z,0
2017-03-28T01:51:10.565Z,0
2017-03-28T01:56:07.670Z,0
2017-03-28T02:01:03.948Z,0
2017-03-28T02:06:00.109Z,0
2017-03-28T02:10:56.690Z,0
2017-03-28T02:15:53.007Z,0
2017-03-28T02:20:49.811Z,0
2017-03-28T02:25:46.086Z,0
2017-03-28T02:30:42.432Z,0
2017-03-28T02:35:39.053Z,0
2017-03-28T02:40:38.590Z,0
2017-03-28T02:45:34.932Z,0
2017-03-28T02:50:32.369Z,0
2017-03-28T02:55:29.055Z,0
2017-03-28T03:00:25.510Z,0
2017-03-28T03:05:23.365Z,0
2017-03-28T03:10:19.427Z,0
2017-03-28T03:15:16.272Z,0
2017-03-28T03:20:13.671Z,0
2017-03-28T03:25:10.273Z,0
2017-03-28T03:30:07.276Z,0
2017-03-28T03:35:03.758Z,0
2017-03-28T03:40:00.414Z,0
2017-03-28T03:44:56.897Z,0
2017-03-28T03:49:53.356Z,0
2017-03-28T03:54:50.895Z,0
2017-03-28T03:59:47.214Z,0
2017-03-28T04:04:43.917Z,0
2017-03-28T04:09:40.454Z,0
2017-03-28T04:14:37.379Z,0
2017-03-28T04:19:33.555Z,0
2017-03-28T04:24:30.016Z,0
2017-03-28T04:29:26.438Z,0
2017-03-28T04:34:23.077Z,0
2017-03-28T04:39:19.714Z,4
2017-03-28T04:44:16.056Z,4
2017-03-28T04:49:14.837Z,8
2017-03-28T04:54:12.217Z,16
2017-03-28T04:59:08.098Z,36
2017-03-28T05:04:05.680Z,76
2017-03-28T05:09:02.138Z,132
2017-03-28T05:13:58.785Z,208
2017-03-28T05:18:54.861Z,316
2017-03-28T05:23:51.359Z,440
2017-03-28T05:28:47.697Z,592
2017-03-28T05:33:44.218Z,752
2017-03-28T05:38:40.477Z,920
2017-03-28T05:43:37.970Z,1092
2017-03-28T05:48:35.028Z,1280
2017-03-28T05:53:31.401Z,1440
2017-03-28T05:58:27.817Z,1704
2017-03-28T06:03:24.489Z,1912
2017-03-28T06:13:21.596Z,2092
2017-03-28T06:18:17.920Z,2164
2017-03-28T06:23:14.476Z,2632
2017-03-28T06:28:11.454Z,2608
2017-03-28T06:33:08.326Z,2904
2017-03-28T06:38:05.395Z,3132
2017-03-28T06:43:03.422Z,3124
2017-03-28T06:48:00.082Z,3300
2017-03-28T06:52:58.072Z,3200
2017-03-28T06:57:54.850Z,3392
2017-03-28T07:02:51.446Z,3472
2017-03-28T07:07:49.554Z,3600
2017-03-28T07:12:51.312Z,3728
2017-03-28T07:17:49.774Z,3700
2017-03-28T07:22:45.866Z,3756
2017-03-28T07:27:42.774Z,3844
2017-03-28T07:32:39.351Z,3936
2017-03-28T07:37:36.211Z,4100
2017-03-28T07:42:32.861Z,4148
2017-03-28T07:47:30.256Z,4420
2017-03-28T07:52:27.593Z,4752
2017-03-28T07:57:24.645Z,4824
2017-03-28T08:02:21.702Z,5408
2017-03-28T08:07:18.850Z,5480
2017-03-28T08:12:15.739Z,6728
2017-03-28T08:17:12.687Z,6080
2017-03-28T08:22:09.518Z,12848
2017-03-28T08:27:06.204Z,12108
2017-03-28T08:32:02.850Z,8548
2017-03-28T08:37:00.202Z,16928
2017-03-28T08:41:56.891Z,7872
2017-03-28T08:46:53.434Z,8132
2017-03-28T08:51:49.980Z,8508
2017-03-28T08:56:46.200Z,9212
2017-03-28T09:01:42.446Z,8980
2017-03-28T09:06:39.239Z,9640
2017-03-28T09:11:35.480Z,7944
2017-03-28T09:16:31.962Z,9196
2017-03-28T09:21:28.479Z,9632
2017-03-28T09:26:25.178Z,7540
2017-03-28T09:31:21.675Z,14560
2017-03-28T09:36:19.766Z,8252
2017-03-28T09:41:16.117Z,15996
2017-03-28T09:46:13.710Z,33664
2017-03-28T09:51:12.071Z,12268
2017-03-28T09:56:08.451Z,25440
2017-03-28T10:01:05.647Z,28096
2017-03-28T10:06:05.257Z,17216
2017-03-28T10:11:01.476Z,15520
2017-03-28T10:15:58.198Z,19136
2017-03-28T10:20:55.398Z,23136
2017-03-28T10:25:52.819Z,22080
2017-03-28T10:30:49.697Z,21504
2017-03-28T10:35:46.809Z,34400
2017-03-28T10:40:44.267Z,30016
2017-03-28T10:45:41.850Z,30752
2017-03-28T10:50:39.397Z,22016
2017-03-28T10:55:36.612Z,48064
2017-03-28T11:00:34.487Z,42752
2017-03-28T11:05:32.393Z,45088
2017-03-28T11:10:30.076Z,43520
2017-03-28T11:15:27.144Z,44480
2017-03-28T11:20:24.589Z,51488
2017-03-28T11:25:21.604Z,51904
2017-03-28T11:30:19.249Z,58400
2017-03-28T11:35:16.548Z,59008
2017-03-28T11:40:13.645Z,61504
2017-03-28T11:45:10.811Z,54400
2017-03-28T11:50:07.574Z,52896
2017-03-28T11:55:04.362Z,51712
2017-03-28T12:00:01.124Z,47488
2017-03-28T12:04:57.695Z,43840
2017-03-28T12:09:54.606Z,38080
2017-03-28T12:14:50.959Z,34592
2017-03-28T12:19:47.880Z,26592
2017-03-28T12:24:44.952Z,28448
2017-03-28T12:29:41.723Z,22368
2017-03-28T12:34:37.923Z,18496
2017-03-28T12:39:34.619Z,21984
2017-03-28T12:44:31.429Z,33248
2017-03-28T12:49:27.800Z,22368
2017-03-28T12:54:23.395Z,10440
2017-03-28T12:59:18.581Z,13068
2017-03-28T13:04:14.638Z,34976
2017-03-28T13:09:12.453Z,38368
2017-03-28T13:14:08.745Z,13916
2017-03-28T13:19:05.447Z,22624
2017-03-28T13:24:02.953Z,16396
2017-03-28T13:28:59.416Z,9588
2017-03-28T13:33:56.610Z,8884
2017-03-28T13:38:52.935Z,7544
2017-03-28T13:43:49.327Z,5736
2017-03-28T13:48:45.577Z,5584
2017-03-28T13:53:41.955Z,5356
2017-03-28T13:58:40.608Z,5316
2017-03-28T14:03:37.277Z,6440
2017-03-28T14:08:34.519Z,5716
2017-03-28T14:13:31.917Z,5492
2017-03-28T14:18:32.448Z,5492
2017-03-28T14:23:28.082Z,4660
2017-03-28T14:28:26.116Z,4880
2017-03-28T14:33:22.375Z,4896
2017-03-28T14:38:19.236Z,4940
2017-03-28T14:43:15.758Z,5152
2017-03-28T14:48:12.721Z,5268
2017-03-28T14:53:10.056Z,5184
2017-03-28T14:58:07.013Z,4984
2017-03-28T15:03:03.439Z,4888
2017-03-28T15:07:59.867Z,4588
2017-03-28T15:12:55.853Z,4168
2017-03-28T15:17:53.328Z,3820
2017-03-28T15:22:49.602Z,3712
2017-03-28T15:27:46.743Z,3588
2017-03-28T15:32:43.357Z,3392
2017-03-28T15:37:40.288Z,3208
2017-03-28T15:42:37.192Z,3048
2017-03-28T15:47:33.559Z,3012
2017-03-28T15:52:29.766Z,2956
2017-03-28T16:02:31.429Z,2796
2017-03-28T16:07:28.139Z,2704
2017-03-28T16:12:24.508Z,2632
2017-03-28T16:17:20.886Z,2484
2017-03-28T16:22:19.069Z,2384
2017-03-28T16:27:15.397Z,2096
2017-03-28T16:32:11.762Z,1992
2017-03-28T16:37:08.100Z,1880
2017-03-28T16:42:04.846Z,1820
2017-03-28T16:47:01.257Z,1552
2017-03-28T16:51:58.105Z,1260
2017-03-28T16:56:54.553Z,1196
2017-03-28T17:01:51.244Z,1232
2017-03-28T17:06:48.116Z,1272
2017-03-28T17:11:44.967Z,1152
2017-03-28T17:16:41.564Z,1000
2017-03-28T17:21:37.682Z,856
2017-03-28T17:26:34.438Z,720
2017-03-28T17:31:30.856Z,588
2017-03-28T17:36:27.175Z,504
2017-03-28T17:41:23.475Z,392
2017-03-28T17:46:20.207Z,296
2017-03-28T17:51:16.589Z,208
2017-03-28T17:56:13.079Z,124
2017-03-28T18:01:10.367Z,72
2017-03-28T18:06:06.695Z,36
2017-03-28T18:11:03.773Z,16
2017-03-28T18:16:00.406Z,8
2017-03-28T18:20:57.216Z,4
2017-03-28T18:25:54.610Z,0
2017-03-28T18:30:50.991Z,0
2017-03-28T18:35:47.240Z,0
2017-03-28T18:40:44.199Z,0
2017-03-28T18:45:41.287Z,0
2017-03-28T18:50:38.065Z,0
2017-03-28T18:55:34.467Z,0
2017-03-28T19:00:31.476Z,0
2017-03-28T19:05:28.179Z,0
2017-03-28T19:10:25.034Z,0
2017-03-28T19:15:21.770Z,0
2017-03-28T19:20:18.627Z,0
2017-03-28T19:25:15.268Z,0
2017-03-28T19:30:11.860Z,0
2017-03-28T19:35:08.409Z,0
2017-03-28T19:40:05.087Z,0
2017-03-28T19:45:01.929Z,0
2017-03-28T19:49:58.842Z,0
2017-03-28T19:54:55.544Z,0
2017-03-28T19:59:52.551Z,0
2017-03-28T20:04:49.995Z,0
2017-03-28T20:09:46.134Z,0
2017-03-28T20:14:42.757Z,0
2017-03-28T20:19:39.653Z,0
2017-03-28T20:24:35.922Z,0
2017-03-28T20:29:32.585Z,0
2017-03-28T20:34:29.808Z,0
2017-03-28T20:39:26.449Z,0
2017-03-28T20:44:22.690Z,0
2017-03-28T20:49:19.776Z,0
2017-03-28T20:54:17.540Z,0
2017-03-28T20:59:14.597Z,0
2017-03-28T21:04:10.945Z,0
2017-03-28T21:09:07.828Z,0
2017-03-28T21:14:04.546Z,0
2017-03-28T21:19:00.753Z,0
2017-03-28T21:23:57.502Z,0
2017-03-28T21:28:54.446Z,0
2017-03-28T21:33:51.009Z,0
2017-03-28T21:38:47.215Z,0
2017-03-28T21:43:43.968Z,0
2017-03-28T21:48:40.395Z,0
2017-03-28T21:53:37.296Z,0
2017-03-28T21:58:33.836Z,0
2017-03-28T22:03:30.292Z,0
2017-03-28T22:08:27.131Z,0
2017-03-28T22:13:23.658Z,0
2017-03-28T22:18:20.311Z,0
2017-03-28T22:23:16.619Z,0
2017-03-28T22:28:13.602Z,0
2017-03-28T22:33:10.501Z,0
2017-03-28T22:38:07.124Z,0
2017-03-28T22:43:03.286Z,0
2017-03-28T22:48:00.062Z,0
2017-03-28T22:52:56.685Z,0
2017-03-28T22:57:53.226Z,0
2017-03-28T23:02:49.686Z,0
2017-03-28T23:07:46.285Z,0
2017-03-28T23:12:42.363Z,0
2017-03-28T23:17:39.400Z,0
2017-03-28T23:22:35.852Z,0
2017-03-28T23:27:32.466Z,0
2017-03-28T23:32:30.002Z,0
2017-03-28T23:37:26.592Z,0
2017-03-28T23:42:23.144Z,0
2017-03-28T23:47:19.827Z,0
2017-03-28T23:52:17.314Z,0
2017-03-28T23:57:14.391Z,0
